Time;durP1;ratioP1;P1;durP2;ratioP2;P2;SDS_P1;SDS_P2;PMS_P1;PMS_P2;Temp;Humidity;BMP_temperature;BMP_pressure;BME280_temperature;BME280_humidity;BME280_pressure;Samples;Min_cycle;Max_cycle;Signal;HPM_P1;HPM_P2
2023/06/09 00:01:58;;;;;;;15.90;4.07;;;13.10;99.90;;;;;;4163804;28;20409;-85
2023/06/09 00:03:59;;;;;;;12.05;3.90;;;13.00;99.90;;;;;;4197758;28;20119;-86
2023/06/09 00:06:01;;;;;;;8.73;4.47;;;13.00;99.90;;;;;;4197532;28;20055;-87
2023/06/09 00:08:02;;;;;;;8.18;3.50;;;13.00;99.90;;;;;;4197675;28;20041;-86
2023/06/09 00:10:04;;;;;;;13.93;3.38;;;13.00;99.90;;;;;;4180470;28;20056;-84
2023/06/09 00:12:06;;;;;;;10.75;3.90;;;12.90;99.90;;;;;;4180297;28;20083;-84
2023/06/09 00:14:07;;;;;;;10.20;3.80;;;12.90;99.90;;;;;;4197957;28;20381;-85
2023/06/09 00:16:08;;;;;;;8.98;4.38;;;12.90;99.90;;;;;;4180427;28;20056;-85
2023/06/09 00:18:09;;;;;;;12.75;3.97;;;12.90;99.90;;;;;;4197185;28;20476;-86
2023/06/09 00:20:10;;;;;;;10.35;3.42;;;12.80;99.90;;;;;;4198284;28;20421;-86
2023/06/09 00:22:13;;;;;;;19.60;4.35;;;12.80;99.90;;;;;;4184059;28;20127;-85
2023/06/09 00:24:14;;;;;;;10.90;4.18;;;12.80;99.90;;;;;;4197883;28;20040;-85
2023/06/09 00:26:16;;;;;;;14.23;3.90;;;12.80;99.90;;;;;;4180011;28;20045;-84
2023/06/09 00:28:16;;;;;;;11.50;4.10;;;12.80;99.90;;;;;;4195721;28;20036;-85
2023/06/09 00:30:21;;;;;;;13.18;4.57;;;12.80;99.90;;;;;;4198016;28;20132;-85
2023/06/09 00:32:22;;;;;;;18.55;4.47;;;12.20;99.90;;;;;;4196274;28;20047;-84
2023/06/09 00:34:23;;;;;;;11.63;4.60;;;12.70;99.90;;;;;;4197045;28;20473;-85
2023/06/09 00:36:24;;;;;;;11.82;3.38;;;12.70;99.90;;;;;;4197952;28;20101;-86
2023/06/09 00:38:25;;;;;;;12.70;4.05;;;12.70;99.90;;;;;;4196452;28;21320;-85
2023/06/09 00:40:26;;;;;;;10.02;3.75;;;12.70;99.90;;;;;;4192460;28;20040;-86
2023/06/09 00:42:28;;;;;;;12.00;4.00;;;12.70;99.90;;;;;;4188759;28;20094;-86
2023/06/09 00:44:29;;;;;;;16.35;3.95;;;12.70;99.90;;;;;;4199407;28;20116;-86
2023/06/09 00:46:31;;;;;;;10.20;4.20;;;12.90;99.90;;;;;;4198512;28;20044;-86
2023/06/09 00:48:32;;;;;;;10.27;4.10;;;12.70;99.90;;;;;;4199507;28;20047;-86
2023/06/09 00:50:34;;;;;;;15.73;4.90;;;12.60;99.90;;;;;;4198553;28;20048;-86
2023/06/09 00:52:35;;;;;;;12.35;4.90;;;12.60;99.90;;;;;;4202642;28;20051;-86
2023/06/09 00:54:38;;;;;;;12.73;5.18;;;12.60;99.90;;;;;;4200121;28;20507;-86
2023/06/09 00:56:39;;;;;;;10.85;4.28;;;12.60;99.90;;;;;;4198147;28;20041;-86
2023/06/09 00:58:41;;;;;;;19.02;5.32;;;12.60;99.90;;;;;;4199251;28;20068;-85
2023/06/09 01:00:42;;;;;;;14.25;5.07;;;12.60;99.90;;;;;;4201487;28;20080;-85
2023/06/09 01:02:43;;;;;;;13.35;4.63;;;12.60;99.90;;;;;;4201394;28;20048;-86
2023/06/09 01:04:49;;;;;;;17.55;5.72;;;12.60;99.90;;;;;;4200640;28;20060;-86
2023/06/09 01:07:00;;;;;;;15.10;5.40;;;12.60;99.90;;;;;;4201100;28;20473;-86
2023/06/09 01:09:18;;;;;;;13.13;5.18;;;12.60;99.90;;;;;;4200817;28;20094;-86
2023/06/09 01:11:40;;;;;;;18.02;4.55;;;12.60;99.90;;;;;;4200003;28;20059;-86
2023/06/09 01:14:07;;;;;;;14.80;4.88;;;12.60;99.90;;;;;;4195818;28;20056;-87
2023/06/09 01:16:17;;;;;;;12.38;4.47;;;12.60;99.90;;;;;;4200919;28;20366;-86
2023/06/09 01:18:20;;;;;;;24.33;6.45;;;12.50;99.90;;;;;;4201044;28;20048;-86
2023/06/09 01:20:45;;;;;;;12.40;4.85;;;12.50;99.90;;;;;;4200538;28;20045;-86
2023/06/09 01:22:54;;;;;;;10.82;4.28;;;12.40;99.90;;;;;;4215425;28;20055;-86
2023/06/09 01:25:04;;;;;;;18.20;6.15;;;12.40;99.90;;;;;;4200967;28;20039;-86
2023/06/09 01:27:07;;;;;;;11.13;4.82;;;12.40;99.90;;;;;;4200695;28;20044;-85
2023/06/09 01:29:10;;;;;;;14.00;4.35;;;12.40;99.90;;;;;;4199106;28;20175;-86
2023/06/09 01:31:15;;;;;;;13.23;4.53;;;12.30;99.90;;;;;;4193531;28;20055;-85
2023/06/09 01:33:20;;;;;;;13.30;4.50;;;12.30;99.90;;;;;;4183761;28;20091;-85
2023/06/09 01:35:21;;;;;;;15.57;4.88;;;12.30;99.90;;;;;;4183811;28;20045;-86
2023/06/09 01:37:24;;;;;;;13.88;4.32;;;12.30;99.90;;;;;;4182172;28;20053;-85
2023/06/09 01:39:26;;;;;;;14.15;4.88;;;12.30;99.90;;;;;;4184282;28;20045;-86
2023/06/09 01:41:27;;;;;;;13.27;5.28;;;12.30;99.90;;;;;;4166859;28;20041;-86
2023/06/09 01:43:28;;;;;;;13.35;4.80;;;12.30;99.90;;;;;;4182853;28;20052;-87
2023/06/09 01:45:29;;;;;;;13.25;5.60;;;12.30;99.90;;;;;;4184336;28;20055;-87
2023/06/09 01:47:30;;;;;;;11.90;4.95;;;12.30;99.90;;;;;;4181898;28;20049;-86
2023/06/09 01:49:54;;;;;;;14.32;4.80;;;12.30;99.90;;;;;;4184700;28;20048;-86
2023/06/09 01:51:55;;;;;;;10.32;4.68;;;12.30;99.90;;;;;;4166025;28;20041;-85
2023/06/09 01:54:26;;;;;;;20.30;5.78;;;12.30;99.90;;;;;;4198429;28;20460;-86
2023/06/09 01:56:43;;;;;;;13.77;5.05;;;12.30;99.90;;;;;;4168641;28;20084;-86
2023/06/09 01:58:46;;;;;;;14.02;5.35;;;12.30;99.90;;;;;;4183546;28;20485;-85
2023/06/09 02:00:48;;;;;;;10.85;4.78;;;12.30;99.90;;;;;;4165595;28;20049;-85
2023/06/09 02:02:53;;;;;;;18.30;5.07;;;12.30;99.90;;;;;;4184620;28;20041;-85
2023/06/09 02:04:56;;;;;;;12.43;4.90;;;12.20;99.90;;;;;;4183503;28;20032;-86
2023/06/09 02:06:57;;;;;;;14.48;4.68;;;12.20;99.90;;;;;;4187518;28;20044;-86
2023/06/09 02:09:00;;;;;;;13.45;4.22;;;12.20;99.90;;;;;;4185084;28;20087;-86
2023/06/09 02:11:01;;;;;;;15.57;4.32;;;12.20;99.90;;;;;;4184647;28;20060;-86
2023/06/09 02:13:16;;;;;;;16.80;5.07;;;12.20;99.90;;;;;;4185588;28;20056;-86
2023/06/09 02:15:18;;;;;;;9.48;4.72;;;12.20;99.90;;;;;;4185632;28;20556;-86
2023/06/09 02:17:20;;;;;;;10.57;3.90;;;12.20;99.90;;;;;;4182415;28;20509;-85
2023/06/09 02:19:22;;;;;;;11.30;4.72;;;12.10;99.90;;;;;;4190788;28;20052;-85
2023/06/09 02:21:23;;;;;;;14.77;4.80;;;12.20;99.90;;;;;;4199534;28;20427;-85
2023/06/09 02:23:24;;;;;;;11.90;4.88;;;12.10;99.90;;;;;;4209691;28;20056;-86
2023/06/09 02:25:28;;;;;;;13.07;5.20;;;12.10;99.90;;;;;;4199681;28;20567;-85
2023/06/09 02:27:30;;;;;;;11.02;4.57;;;12.10;99.90;;;;;;4216357;28;20450;-86
2023/06/09 02:29:30;;;;;;;11.68;4.32;;;12.10;99.90;;;;;;4183843;28;20052;-85
2023/06/09 02:31:31;;;;;;;10.98;4.00;;;12.10;99.90;;;;;;4216284;28;20040;-86
2023/06/09 02:33:33;;;;;;;8.63;3.95;;;12.00;99.90;;;;;;4217307;28;20500;-86
2023/06/09 02:35:34;;;;;;;11.02;4.40;;;12.00;99.90;;;;;;4181669;28;20051;-86
2023/06/09 02:37:35;;;;;;;13.07;4.30;;;11.60;99.90;;;;;;4217482;28;20400;-85
2023/06/09 02:39:36;;;;;;;9.82;4.10;;;11.90;99.90;;;;;;4216781;28;20044;-86
2023/06/09 02:41:36;;;;;;;11.68;4.32;;;11.90;99.90;;;;;;4183757;28;20056;-86
2023/06/09 02:43:37;;;;;;;10.93;4.72;;;11.90;99.90;;;;;;4217501;28;20087;-86
2023/06/09 02:45:38;;;;;;;12.60;4.72;;;11.90;99.90;;;;;;4198481;28;20055;-86
2023/06/09 02:47:39;;;;;;;9.55;4.15;;;11.90;99.90;;;;;;4215305;28;20071;-86
2023/06/09 02:49:40;;;;;;;11.32;4.95;;;11.90;99.90;;;;;;4214511;28;20036;-86
2023/06/09 02:51:41;;;;;;;12.98;4.70;;;11.90;99.90;;;;;;4211079;28;20036;-85
2023/06/09 02:53:43;;;;;;;16.13;5.63;;;11.80;99.90;;;;;;4215838;28;20080;-86
2023/06/09 02:55:44;;;;;;;10.25;4.55;;;11.80;99.90;;;;;;4198806;28;20118;-85
2023/06/09 02:57:45;;;;;;;12.07;4.38;;;11.80;99.90;;;;;;4215882;28;20056;-85
2023/06/09 02:59:46;;;;;;;15.27;4.80;;;11.80;99.90;;;;;;4215462;28;20055;-86
2023/06/09 03:01:47;;;;;;;14.95;5.18;;;11.80;99.90;;;;;;4216007;28;20044;-85
2023/06/09 03:03:48;;;;;;;11.70;4.68;;;11.80;99.90;;;;;;4215742;28;20043;-85
2023/06/09 03:05:49;;;;;;;13.25;4.88;;;11.80;99.90;;;;;;4215679;28;20042;-85
2023/06/09 03:07:50;;;;;;;21.83;6.15;;;11.70;99.90;;;;;;4194869;28;20048;-86
2023/06/09 03:09:51;;;;;;;14.52;4.63;;;11.70;99.90;;;;;;4185789;28;20028;-86
2023/06/09 03:11:52;;;;;;;9.95;4.35;;;11.70;99.90;;;;;;4198411;28;20127;-86
2023/06/09 03:13:53;;;;;;;13.88;5.43;;;11.70;99.90;;;;;;4199417;28;20492;-85
2023/06/09 03:15:54;;;;;;;13.98;5.50;;;11.70;99.90;;;;;;4182884;28;20048;-85
2023/06/09 03:17:57;;;;;;;17.13;4.60;;;11.70;99.90;;;;;;4200204;28;20049;-85
2023/06/09 03:19:59;;;;;;;14.77;4.65;;;11.70;99.90;;;;;;4200483;28;20041;-85
2023/06/09 03:22:03;;;;;;;10.25;4.18;;;11.70;99.90;;;;;;4199133;28;20084;-85
2023/06/09 03:24:05;;;;;;;19.55;5.75;;;11.70;99.90;;;;;;4200109;28;20052;-86
2023/06/09 03:26:07;;;;;;;20.73;5.95;;;11.70;99.90;;;;;;4187264;28;20076;-85
2023/06/09 03:28:08;;;;;;;12.90;4.60;;;11.70;99.90;;;;;;4216366;28;20054;-85
2023/06/09 03:30:09;;;;;;;12.88;4.90;;;11.70;99.90;;;;;;4217222;28;20119;-86
2023/06/09 03:32:10;;;;;;;11.68;4.53;;;11.70;99.90;;;;;;4198704;28;20055;-86
2023/06/09 03:34:11;;;;;;;12.40;5.03;;;11.70;99.90;;;;;;4198944;28;20049;-86
2023/06/09 03:36:13;;;;;;;14.32;4.60;;;11.70;99.90;;;;;;4216193;28;20385;-86
2023/06/09 03:38:15;;;;;;;15.50;4.50;;;11.70;99.90;;;;;;4198877;28;20052;-86
2023/06/09 03:40:15;;;;;;;21.38;6.15;;;11.70;99.90;;;;;;4215483;28;20510;-86
2023/06/09 03:42:16;;;;;;;14.85;5.20;;;11.70;99.90;;;;;;4212460;28;20072;-86
2023/06/09 03:44:18;;;;;;;15.10;4.60;;;11.70;99.90;;;;;;4196637;28;20127;-86
2023/06/09 03:46:19;;;;;;;16.98;4.88;;;11.70;99.90;;;;;;4216211;28;20055;-86
2023/06/09 03:48:20;;;;;;;13.05;4.40;;;11.70;99.90;;;;;;4215830;28;20036;-86
2023/06/09 03:50:20;;;;;;;11.00;5.75;;;11.70;99.90;;;;;;4216255;28;20040;-86
2023/06/09 03:52:22;;;;;;;11.32;5.90;;;11.70;99.90;;;;;;4216396;28;20126;-85
2023/06/09 03:54:22;;;;;;;13.07;4.75;;;11.80;99.90;;;;;;4215715;28;20052;-86
2023/06/09 03:56:23;;;;;;;16.55;4.93;;;11.80;99.90;;;;;;4198616;28;20100;-85
2023/06/09 03:58:27;;;;;;;15.30;4.32;;;11.80;99.90;;;;;;4199214;28;20063;-86
2023/06/09 04:00:27;;;;;;;14.25;4.95;;;11.80;99.90;;;;;;4198649;28;20480;-86
2023/06/09 04:02:28;;;;;;;13.73;4.57;;;11.80;99.90;;;;;;4203014;28;20147;-86
2023/06/09 04:04:29;;;;;;;13.32;4.88;;;11.90;99.90;;;;;;4198632;28;20048;-86
2023/06/09 04:06:30;;;;;;;12.77;5.00;;;11.80;99.90;;;;;;4217383;28;20127;-85
2023/06/09 04:08:32;;;;;;;16.92;5.22;;;11.90;99.90;;;;;;4198017;28;20400;-85
2023/06/09 04:10:33;;;;;;;15.77;5.20;;;11.90;99.90;;;;;;4198987;28;20052;-85
2023/06/09 04:12:33;;;;;;;12.40;4.43;;;11.90;99.90;;;;;;4215632;28;20484;-86
2023/06/09 04:14:34;;;;;;;15.05;5.00;;;12.00;99.90;;;;;;4218083;28;20079;-86
2023/06/09 04:16:36;;;;;;;17.40;5.18;;;12.00;99.90;;;;;;4216478;28;20056;-87
2023/06/09 04:18:36;;;;;;;15.82;5.35;;;12.00;99.90;;;;;;4211794;28;20074;-87
2023/06/09 04:20:38;;;;;;;16.85;5.05;;;12.10;99.90;;;;;;4208742;28;20078;-86
2023/06/09 04:22:51;;;;;;;15.75;5.28;;;12.10;99.90;;;;;;4180494;28;20067;-86
2023/06/09 04:24:52;;;;;;;13.40;4.32;;;12.10;99.90;;;;;;4201394;28;20032;-85
2023/06/09 04:26:53;;;;;;;17.17;5.03;;;12.20;99.90;;;;;;4192964;28;20863;-86
2023/06/09 04:28:54;;;;;;;11.10;4.18;;;12.20;99.90;;;;;;4218435;28;20038;-87
2023/06/09 04:30:57;;;;;;;11.82;4.75;;;12.30;99.90;;;;;;4200910;28;20045;-86
2023/06/09 04:32:58;;;;;;;17.15;4.78;;;12.30;99.90;;;;;;4217697;28;20163;-86
2023/06/09 04:34:59;;;;;;;14.65;4.32;;;12.30;99.90;;;;;;4202274;28;20051;-85
2023/06/09 04:37:00;;;;;;;17.02;4.95;;;12.40;99.90;;;;;;4218326;28;20040;-85
2023/06/09 04:39:03;;;;;;;21.25;4.88;;;12.50;99.90;;;;;;4218907;28;20399;-85
2023/06/09 04:41:05;;;;;;;10.98;4.00;;;12.50;99.90;;;;;;4217442;28;20037;-86
2023/06/09 04:43:07;;;;;;;18.23;4.88;;;12.60;99.90;;;;;;4218091;28;20040;-85
2023/06/09 04:45:09;;;;;;;11.93;4.57;;;12.60;99.90;;;;;;4220031;28;20054;-86
2023/06/09 04:47:10;;;;;;;14.15;5.20;;;12.70;99.90;;;;;;4202255;28;20523;-86
2023/06/09 04:49:12;;;;;;;14.52;4.40;;;12.70;99.90;;;;;;4220141;28;20052;-85
2023/06/09 04:51:16;;;;;;;23.63;6.45;;;12.80;99.90;;;;;;4187962;28;20048;-85
2023/06/09 04:53:19;;;;;;;17.05;4.70;;;12.80;99.90;;;;;;4182897;28;20049;-85
2023/06/09 04:55:20;;;;;;;15.65;5.55;;;12.90;99.90;;;;;;4200605;28;20040;-85
2023/06/09 04:57:20;;;;;;;11.70;4.32;;;12.90;99.90;;;;;;4184356;28;20100;-86
2023/06/09 04:59:22;;;;;;;14.80;4.53;;;13.00;99.90;;;;;;4183440;28;20112;-85
2023/06/09 05:01:23;;;;;;;19.95;4.93;;;13.00;99.90;;;;;;4191797;28;20052;-86
2023/06/09 05:03:25;;;;;;;15.18;4.78;;;13.00;99.90;;;;;;4217665;28;20387;-86
2023/06/09 05:05:26;;;;;;;20.63;5.30;;;13.10;99.90;;;;;;4214125;28;20083;-85
2023/06/09 05:07:27;;;;;;;17.50;5.82;;;13.10;99.90;;;;;;4201237;28;20040;-86
2023/06/09 05:09:28;;;;;;;15.82;4.20;;;13.20;99.90;;;;;;4203310;28;20495;-85
2023/06/09 05:11:29;;;;;;;19.73;4.95;;;13.30;99.90;;;;;;4220160;28;20071;-86
2023/06/09 05:13:30;;;;;;;15.15;5.40;;;13.30;99.90;;;;;;4184557;28;20059;-85
2023/06/09 05:15:32;;;;;;;16.88;5.78;;;13.40;99.90;;;;;;4219550;28;20051;-86
2023/06/09 05:17:33;;;;;;;20.52;5.50;;;13.40;99.90;;;;;;4200361;28;20044;-86
2023/06/09 05:19:34;;;;;;;14.40;4.82;;;13.50;99.90;;;;;;4201770;28;20357;-86
2023/06/09 05:21:36;;;;;;;19.35;6.03;;;13.50;99.90;;;;;;4195248;28;20060;-86
2023/06/09 05:23:41;;;;;;;15.48;5.35;;;13.50;99.90;;;;;;4200722;28;20048;-87
2023/06/09 05:25:41;;;;;;;14.80;4.53;;;13.60;99.90;;;;;;4202083;28;20067;-86
2023/06/09 05:27:42;;;;;;;14.40;4.82;;;13.70;99.90;;;;;;4201215;28;20044;-86
2023/06/09 05:29:43;;;;;;;16.13;5.22;;;13.70;99.90;;;;;;4201786;28;20386;-85
2023/06/09 05:31:44;;;;;;;22.63;5.63;;;13.80;99.90;;;;;;4182417;28;20055;-86
2023/06/09 05:33:46;;;;;;;11.95;4.40;;;13.90;99.90;;;;;;4200742;28;20048;-86
2023/06/09 05:35:47;;;;;;;12.90;4.05;;;14.00;99.90;;;;;;4182588;28;20045;-85
2023/06/09 05:37:49;;;;;;;15.15;4.10;;;14.10;99.90;;;;;;4183280;28;20049;-86
2023/06/09 05:39:50;;;;;;;13.52;5.65;;;14.10;99.90;;;;;;4184060;28;20041;-86
2023/06/09 05:41:51;;;;;;;14.13;4.25;;;14.20;99.90;;;;;;4183169;28;20529;-86
2023/06/09 05:43:52;;;;;;;16.63;4.80;;;14.20;99.90;;;;;;4184202;28;20102;-86
2023/06/09 05:45:53;;;;;;;12.93;4.63;;;14.30;99.90;;;;;;4178936;28;20073;-86
2023/06/09 05:47:55;;;;;;;20.95;6.07;;;14.30;99.90;;;;;;4185365;28;20052;-86
2023/06/09 05:50:01;;;;;;;20.35;4.90;;;14.40;99.90;;;;;;4167027;28;20053;-86
2023/06/09 05:52:02;;;;;;;13.55;5.10;;;14.40;99.90;;;;;;4184686;28;20087;-86
2023/06/09 05:54:03;;;;;;;17.27;5.45;;;14.50;99.90;;;;;;4167208;28;20061;-86
2023/06/09 05:56:05;;;;;;;14.63;5.05;;;14.50;99.90;;;;;;4167250;28;20501;-85
2023/06/09 05:58:06;;;;;;;14.30;4.47;;;14.60;99.90;;;;;;4168291;28;20046;-86
2023/06/09 06:00:09;;;;;;;23.00;5.32;;;14.60;99.90;;;;;;4167896;28;20045;-88
2023/06/09 06:02:09;;;;;;;10.60;4.38;;;14.70;99.90;;;;;;4151713;28;20088;-85
2023/06/09 06:04:10;;;;;;;25.42;5.95;;;14.80;99.90;;;;;;4170246;28;20046;-85
2023/06/09 06:06:11;;;;;;;12.30;4.60;;;14.90;99.90;;;;;;4158396;28;20041;-86
2023/06/09 06:08:13;;;;;;;13.18;4.82;;;15.00;99.90;;;;;;4167087;28;20130;-86
2023/06/09 06:10:14;;;;;;;16.13;5.35;;;15.10;99.90;;;;;;4177481;28;20049;-87
2023/06/09 06:12:16;;;;;;;13.90;4.80;;;15.10;99.90;;;;;;4172516;28;20149;-85
2023/06/09 06:14:16;;;;;;;15.73;4.95;;;15.20;99.90;;;;;;4194663;28;20044;-83
2023/06/09 06:16:17;;;;;;;17.00;4.68;;;15.30;99.90;;;;;;4198470;28;20135;-83
2023/06/09 06:18:18;;;;;;;16.63;5.05;;;15.30;99.90;;;;;;4191235;28;20600;-83
2023/06/09 06:20:19;;;;;;;15.50;4.50;;;15.40;99.90;;;;;;4195284;28;20044;-83
2023/06/09 06:22:20;;;;;;;17.85;5.38;;;15.50;99.90;;;;;;4205911;28;20059;-82
2023/06/09 06:24:20;;;;;;;15.63;4.22;;;15.50;99.90;;;;;;4198026;28;20481;-84
2023/06/09 06:26:21;;;;;;;12.27;4.85;;;15.60;99.90;;;;;;4212369;28;20032;-85
2023/06/09 06:28:22;;;;;;;10.35;3.92;;;15.60;99.90;;;;;;4180937;28;20183;-85
2023/06/09 06:30:23;;;;;;;14.23;4.43;;;15.70;99.90;;;;;;4216166;28;20044;-84
2023/06/09 06:32:25;;;;;;;11.00;5.03;;;15.80;99.90;;;;;;4200454;28;20424;-84
2023/06/09 06:34:25;;;;;;;23.35;4.22;;;15.90;99.90;;;;;;4215224;28;20052;-86
2023/06/09 06:36:26;;;;;;;13.85;4.43;;;15.90;99.90;;;;;;4216837;28;20126;-85
2023/06/09 06:38:27;;;;;;;16.27;4.53;;;16.00;99.90;;;;;;4217194;28;20123;-86
2023/06/09 06:40:28;;;;;;;19.60;6.28;;;16.10;99.90;;;;;;4216195;28;20089;-84
2023/06/09 06:42:29;;;;;;;18.15;5.32;;;16.20;99.90;;;;;;4215323;28;20086;-85
2023/06/09 06:44:30;;;;;;;16.02;5.07;;;16.40;99.90;;;;;;4217872;28;20042;-84
2023/06/09 06:46:31;;;;;;;12.60;4.03;;;16.50;99.90;;;;;;4214462;28;20036;-85
2023/06/09 06:48:32;;;;;;;15.68;5.18;;;16.60;99.90;;;;;;4196104;28;20041;-85
2023/06/09 06:50:33;;;;;;;14.70;3.78;;;16.70;99.90;;;;;;4215667;28;20048;-85
2023/06/09 06:52:34;;;;;;;13.45;4.32;;;16.70;99.90;;;;;;4216881;28;20040;-85
2023/06/09 06:54:34;;;;;;;19.13;5.10;;;16.80;99.90;;;;;;4196349;28;20044;-85
2023/06/09 06:56:36;;;;;;;19.63;3.92;;;16.80;99.90;;;;;;4194599;28;20097;-84
2023/06/09 06:58:38;;;;;;;16.00;4.93;;;16.90;99.90;;;;;;4198062;28;20115;-85
2023/06/09 07:00:39;;;;;;;11.15;4.30;;;17.00;99.90;;;;;;4195997;28;20049;-85
2023/06/09 07:02:40;;;;;;;13.82;4.25;;;17.10;99.90;;;;;;4195886;28;20079;-84
2023/06/09 07:04:42;;;;;;;15.38;4.63;;;17.20;99.90;;;;;;4197954;28;20096;-84
2023/06/09 07:06:43;;;;;;;15.52;5.40;;;17.30;99.90;;;;;;4216727;28;20119;-85
2023/06/09 07:08:44;;;;;;;16.05;4.38;;;17.40;99.90;;;;;;4216468;28;20048;-84
2023/06/09 07:10:45;;;;;;;14.77;4.55;;;17.50;99.90;;;;;;4213411;28;20104;-85
2023/06/09 07:12:46;;;;;;;15.95;3.95;;;17.60;99.90;;;;;;4214675;28;20040;-84
2023/06/09 07:14:47;;;;;;;14.55;4.25;;;17.60;99.90;;;;;;4216955;28;20055;-86
2023/06/09 07:16:51;;;;;;;7.95;4.13;;;17.70;99.90;;;;;;4217000;28;20047;-84
2023/06/09 07:18:52;;;;;;;11.05;4.63;;;17.80;99.90;;;;;;4201014;28;20524;-85
2023/06/09 07:20:54;;;;;;;14.07;4.47;;;17.90;99.90;;;;;;4198048;28;20091;-85
2023/06/09 07:22:55;;;;;;;11.32;3.88;;;18.10;99.90;;;;;;4210577;28;20044;-85
2023/06/09 07:24:56;;;;;;;17.42;4.25;;;18.10;99.90;;;;;;4179418;28;20070;-84
2023/06/09 07:26:56;;;;;;;10.13;3.95;;;18.20;99.90;;;;;;4215081;28;20373;-84
2023/06/09 07:28:57;;;;;;;12.77;4.10;;;;;;;;;;4186373;28;20139;-85
2023/06/09 07:30:59;;;;;;;17.70;4.18;;;;;;;;;;4205053;28;20169;-83
2023/06/09 07:32:59;;;;;;;15.20;3.65;;;18.30;99.90;;;;;;4215285;28;20040;-85
2023/06/09 07:35:00;;;;;;;12.38;4.40;;;18.70;99.90;;;;;;4196181;28;20049;-84
2023/06/09 07:37:04;;;;;;;10.43;3.22;;;18.80;99.90;;;;;;4215577;28;20140;-84
2023/06/09 07:39:05;;;;;;;11.90;4.07;;;18.80;99.90;;;;;;4216383;28;20415;-84
2023/06/09 07:41:05;;;;;;;12.95;4.18;;;19.00;99.90;;;;;;4213504;28;20048;-84
2023/06/09 07:43:06;;;;;;;12.50;4.20;;;19.10;99.90;;;;;;4196466;28;20080;-85
2023/06/09 07:45:07;;;;;;;8.23;3.92;;;19.20;99.90;;;;;;4208356;28;20488;-85
2023/06/09 07:47:08;;;;;;;11.63;3.90;;;19.40;99.90;;;;;;4216362;28;20480;-86
2023/06/09 07:49:09;;;;;;;11.88;4.15;;;19.50;99.90;;;;;;4217635;28;20046;-84
2023/06/09 07:51:13;;;;;;;10.30;4.20;;;19.60;99.90;;;;;;4210684;28;20382;-85
2023/06/09 07:53:15;;;;;;;11.93;4.00;;;19.70;99.90;;;;;;4214244;28;20048;-84
2023/06/09 07:55:16;;;;;;;12.70;3.92;;;19.90;99.90;;;;;;4215289;28;20473;-85
2023/06/09 07:57:17;;;;;;;14.00;3.55;;;19.90;99.90;;;;;;4196154;28;20114;-85
2023/06/09 07:59:18;;;;;;;11.38;3.35;;;20.10;99.90;;;;;;4214516;28;20044;-85
2023/06/09 08:01:21;;;;;;;11.82;3.88;;;20.20;99.90;;;;;;4197676;28;20049;-84
2023/06/09 08:03:22;;;;;;;20.88;4.20;;;20.30;99.90;;;;;;4214661;28;20061;-83
2023/06/09 08:05:23;;;;;;;13.88;4.28;;;20.40;99.90;;;;;;4215216;28;20072;-85
2023/06/09 08:07:23;;;;;;;10.40;3.88;;;20.50;99.90;;;;;;4214450;28;20109;-83
2023/06/09 08:09:27;;;;;;;10.20;3.28;;;20.70;99.90;;;;;;4210830;28;20036;-87
2023/06/09 08:11:28;;;;;;;8.85;3.80;;;20.70;99.90;;;;;;4217662;28;20048;-85
2023/06/09 08:13:28;;;;;;;16.33;3.85;;;20.80;99.90;;;;;;4198245;28;20044;-84
2023/06/09 08:15:30;;;;;;;14.57;4.28;;;20.90;99.90;;;;;;4216925;28;20048;-86
2023/06/09 08:17:37;;;;;;;15.95;4.10;;;21.00;99.90;;;;;;4203598;28;20037;-85
2023/06/09 08:19:38;;;;;;;12.98;3.35;;;21.20;99.90;;;;;;4199444;28;20037;-86
2023/06/09 08:21:43;;;;;;;16.67;5.00;;;21.30;99.90;;;;;;4202928;28;20062;-86
2023/06/09 08:23:44;;;;;;;11.00;4.30;;;21.40;99.90;;;;;;4202755;28;20840;-86
2023/06/09 08:25:45;;;;;;;10.00;3.50;;;21.50;99.90;;;;;;4203964;28;20094;-86
2023/06/09 08:27:47;;;;;;;11.32;3.83;;;21.70;99.90;;;;;;4199006;28;20036;-86
2023/06/09 08:29:49;;;;;;;13.63;4.13;;;21.80;99.90;;;;;;4222296;28;20043;-85
2023/06/09 08:31:50;;;;;;;12.20;4.47;;;22.00;99.90;;;;;;4219216;28;20040;-85
2023/06/09 08:33:50;;;;;;;13.50;3.83;;;22.10;99.90;;;;;;4221170;28;20040;-86
2023/06/09 08:35:51;;;;;;;15.68;4.43;;;22.20;99.90;;;;;;4201326;28;20488;-86
2023/06/09 08:37:53;;;;;;;12.60;4.32;;;22.40;99.90;;;;;;4213817;28;20400;-87
2023/06/09 08:39:57;;;;;;;10.88;4.45;;;22.60;99.90;;;;;;4204466;28;20044;-85
2023/06/09 08:42:10;;;;;;;15.18;4.28;;;22.80;99.90;;;;;;4194613;28;20040;-86
2023/06/09 08:44:13;;;;;;;8.63;3.13;;;22.90;99.90;;;;;;4205157;28;20049;-85
2023/06/09 08:46:16;;;;;;;12.25;3.80;;;23.00;99.90;;;;;;4215823;28;20129;-86
2023/06/09 08:48:19;;;;;;;10.70;3.63;;;;;;;;;;4215507;28;20123;-85
2023/06/09 08:50:27;;;;;;;12.23;4.05;;;23.00;99.90;;;;;;4188669;28;20367;-85
2023/06/09 08:52:31;;;;;;;15.00;4.77;;;23.20;99.90;;;;;;4205624;28;20071;-86
2023/06/09 08:54:33;;;;;;;8.23;3.78;;;23.40;99.90;;;;;;4183749;28;20045;-84
2023/06/09 08:56:34;;;;;;;7.38;3.58;;;;;;;;;;4216125;28;20036;-85
2023/06/09 08:58:36;;;;;;;10.70;4.07;;;23.60;99.90;;;;;;4216015;28;20050;-84
2023/06/09 09:00:38;;;;;;;8.80;3.80;;;23.90;99.90;;;;;;4222148;28;20529;-87
2023/06/09 09:02:40;;;;;;;11.82;3.88;;;23.90;99.90;;;;;;4219816;28;20048;-86
2023/06/09 09:04:43;;;;;;;11.73;3.70;;;;;;;;;;4221801;28;20043;-87
2023/06/09 09:06:45;;;;;;;10.55;3.47;;;24.10;99.90;;;;;;4218814;28;20172;-85
2023/06/09 09:08:46;;;;;;;9.52;3.63;;;24.20;99.90;;;;;;4222248;28;20044;-87
2023/06/09 09:10:48;;;;;;;8.43;3.58;;;24.60;99.90;;;;;;4221959;28;20047;-87
2023/06/09 09:12:50;;;;;;;6.57;3.50;;;24.60;99.90;;;;;;4222776;28;20032;-85
2023/06/09 09:14:52;;;;;;;11.55;3.53;;;;;;;;;;4224507;28;20040;-86
2023/06/09 09:16:53;;;;;;;10.05;2.97;;;;;;;;;;4222938;28;20524;-86
2023/06/09 09:18:55;;;;;;;8.88;3.30;;;;;;;;;;4204978;28;20048;-86
2023/06/09 09:20:56;;;;;;;8.10;3.10;;;;;;;;;;4213482;28;20491;-87
2023/06/09 09:22:58;;;;;;;9.15;3.50;;;24.70;99.90;;;;;;4213986;28;20424;-86
2023/06/09 09:25:00;;;;;;;7.43;3.15;;;25.50;99.70;;;;;;4220696;28;20044;-86
2023/06/09 09:27:17;;;;;;;10.98;3.30;;;25.50;99.20;;;;;;4201956;28;20048;-87
2023/06/09 09:29:25;;;;;;;10.55;2.90;;;25.30;98.40;;;;;;4222195;28;20032;-88
2023/06/09 09:31:33;;;;;;;11.40;3.95;;;25.70;98.80;;;;;;4223053;28;20051;-86
2023/06/09 09:33:38;;;;;;;7.40;2.83;;;25.90;98.60;;;;;;4205175;28;20110;-86
2023/06/09 09:35:53;;;;;;;11.27;3.20;;;26.00;98.50;;;;;;4205512;28;20056;-86
2023/06/09 09:37:56;;;;;;;6.47;2.72;;;26.10;97.70;;;;;;4224370;28;20530;-87
2023/06/09 09:39:57;;;;;;;11.80;2.80;;;26.50;97.60;;;;;;4202672;28;20083;-86
2023/06/09 09:42:07;;;;;;;6.95;2.88;;;26.60;97.40;;;;;;4202021;28;20037;-87
2023/06/09 09:44:16;;;;;;;11.35;3.60;;;26.80;96.80;;;;;;4221879;28;20032;-87
2023/06/09 09:46:19;;;;;;;8.98;2.63;;;27.00;95.60;;;;;;4216241;28;20050;-86
2023/06/09 09:48:24;;;;;;;8.88;2.97;;;27.00;95.80;;;;;;4188630;28;20049;-86
2023/06/09 09:50:24;;;;;;;11.20;3.70;;;27.10;95.00;;;;;;4203291;28;20562;-87
2023/06/09 09:52:30;;;;;;;6.78;3.03;;;27.10;94.90;;;;;;4222753;28;20040;-88
2023/06/09 09:54:35;;;;;;;8.25;2.53;;;27.20;94.60;;;;;;4221497;28;20051;-87
2023/06/09 09:56:37;;;;;;;9.38;3.25;;;;;;;;;;4222588;28;20048;-86
2023/06/09 09:58:40;;;;;;;6.40;3.50;;;;;;;;;;4221805;28;21929;-85
2023/06/09 10:00:48;;;;;;;12.13;2.95;;;;;;;;;;4222131;28;20043;-87
2023/06/09 10:02:52;;;;;;;15.82;3.35;;;;;;;;;;4221968;28;20042;-86
2023/06/09 10:04:56;;;;;;;11.30;2.90;;;;;;;;;;4220546;28;20071;-86
2023/06/09 10:07:03;;;;;;;8.52;2.85;;;;;;;;;;4203111;28;20048;-86
2023/06/09 10:09:05;;;;;;;5.13;2.97;;;;;;;;;;4215387;28;20049;-85
2023/06/09 10:11:07;;;;;;;8.23;3.72;;;;;;;;;;4209567;28;20040;-87
2023/06/09 10:13:10;;;;;;;9.43;2.97;;;;;;;;;;4221880;28;20050;-87
2023/06/09 10:15:11;;;;;;;9.55;3.33;;;;;;;;;;4218334;28;20051;-87
2023/06/09 10:17:20;;;;;;;8.88;3.35;;;27.30;94.20;;;;;;4210368;28;20036;-86
2023/06/09 10:19:23;;;;;;;8.38;2.97;;;;;;;;;;4216753;28;20036;-88
2023/06/09 10:21:25;;;;;;;10.98;3.33;;;;;;;;;;4217814;28;20097;-88
2023/06/09 10:23:27;;;;;;;10.82;3.92;;;;;;;;;;4205620;28;20508;-86
2023/06/09 10:25:29;;;;;;;7.68;2.95;;;29.00;90.80;;;;;;4219032;28;20040;-86
2023/06/09 10:27:30;;;;;;;8.48;3.28;;;29.20;88.40;;;;;;4215557;28;20098;-86
2023/06/09 10:29:33;;;;;;;6.82;2.67;;;29.30;88.60;;;;;;4212372;28;20044;-87
2023/06/09 10:31:41;;;;;;;6.10;2.60;;;29.40;87.30;;;;;;4209453;28;20058;-86
2023/06/09 10:33:45;;;;;;;9.38;2.90;;;29.50;86.40;;;;;;4210809;28;20040;-86
2023/06/09 10:35:49;;;;;;;9.20;3.03;;;29.50;88.10;;;;;;4206239;28;20040;-87
2023/06/09 10:37:53;;;;;;;7.95;3.15;;;29.70;86.90;;;;;;4215280;28;20047;-85